メインページ
METAR-TAF:

METAR-TAF

空港 :

ヤップ州, Yap Island, ミクロネシア

ヤップ国際空港

緯度: 09-29N, 経度: 138-05E, 海抜: 28m

現時点の気象観測

当レポートは27分前の00:51(UTC)に作成
変向風 6kt
気温 29°C
湿度 84%
気圧 1012 hPa
視程: 19.3km
高度1600ftの雲はほとんどない
高度3000ftの雲は散在している
高度13000ftの千切れ雲あり
高度30000ftの曇り

METAR: PTYA 230051Z VRB06KT 12SM FEW016 SCT030 BKN130 OVC300 29/26 A2987 RMK SLP115 T02910260

時間: 11:18 (01:18 UTC)

予報

当レポートは1時間48分前の23:30(UTC)に作成
予報は23日の 00時(UTC)から 23日の 24時(UTC)まで有効
東/南東の風 11kt
視程: 10km
高度1600ftの雲は散在している
高度4000ftの雲は散在している
高度12000ftの曇り
近辺でにわか雨

TAF: PTYA 222330Z 2300/2324 12011KT P6SM VCSH SCT016 SCT040 OVC120

4,000以上の空港の気象観測と天気予報(METAR報とTAF報)

利用可能な観測所は地図上に黄色い丸と赤い丸で示す。

丸の上にカーソルを重ねると観測所名を参照できる。

次にクリックすると気象観測と天気予報を参照できる。

マップの切り替え:黒色「×」印の緑ボタンをクリックして拡大、「-」印の緑ボタンをクリックして縮小、緑色の三角印をクリックして隣りの地図に切り替え


METAR-TAF: